createdAt,value
2022-09-09T00:04:10.428Z,2.95
2022-09-09T00:09:40.988Z,2.96
2022-09-09T00:14:48.781Z,2.97
2022-09-09T00:19:56.437Z,2.95
2022-09-09T00:25:04.105Z,2.96
2022-09-09T00:30:12.336Z,2.95
2022-09-09T00:35:19.858Z,2.97
2022-09-09T00:40:28.281Z,2.96
2022-09-09T00:45:35.708Z,2.96
2022-09-09T00:50:44.009Z,2.96
2022-09-09T00:55:51.346Z,2.96
2022-09-09T01:00:58.668Z,2.96
2022-09-09T01:06:06.327Z,2.96
2022-09-09T01:11:13.905Z,2.96
2022-09-09T01:16:22.063Z,2.96
2022-09-09T01:21:29.403Z,2.96
2022-09-09T01:26:36.379Z,2.95
2022-09-09T01:31:43.575Z,2.95
2022-09-09T01:36:50.873Z,2.96
2022-09-09T01:41:58.357Z,2.96
2022-09-09T01:47:05.851Z,2.96
2022-09-09T01:52:14.887Z,2.96
2022-09-09T01:57:22.232Z,2.96
2022-09-09T02:02:30.408Z,2.96
2022-09-09T02:07:37.202Z,2.95
2022-09-09T02:12:45.517Z,2.96
2022-09-09T02:17:54.505Z,2.96
2022-09-09T02:23:02.598Z,2.96
2022-09-09T02:28:09.783Z,2.96
2022-09-09T02:33:16.571Z,2.96
2022-09-09T02:38:24.540Z,2.95
2022-09-09T02:43:31.898Z,2.96
2022-09-09T02:48:39.361Z,2.96
2022-09-09T02:53:47.182Z,2.95
2022-09-09T02:58:54.380Z,2.95
2022-09-09T03:04:08.470Z,2.95
2022-09-09T03:09:15.097Z,2.95
2022-09-09T03:14:24.490Z,2.95
2022-09-09T03:19:32.667Z,2.95
2022-09-09T03:24:39.423Z,2.96
2022-09-09T03:29:46.476Z,2.95
2022-09-09T03:34:53.832Z,2.95
2022-09-09T03:40:00.241Z,2.96
2022-09-09T03:45:09.531Z,2.95
2022-09-09T03:50:17.267Z,2.96
2022-09-09T03:55:24.894Z,2.94
2022-09-09T04:00:37.979Z,2.95
2022-09-09T04:05:45.608Z,2.96
2022-09-09T04:10:52.017Z,2.95
2022-09-09T04:16:00.667Z,2.96
2022-09-09T04:21:07.500Z,2.95
2022-09-09T04:26:16.277Z,2.94
2022-09-09T04:31:24.753Z,2.94
2022-09-09T04:36:33.026Z,2.96
2022-09-09T04:41:41.713Z,2.95
2022-09-09T04:46:55.107Z,2.95
2022-09-09T04:52:01.860Z,2.95
2022-09-09T04:57:09.374Z,2.95
2022-09-09T05:02:16.580Z,2.94
2022-09-09T05:07:23.737Z,2.95
2022-09-09T05:12:31.857Z,2.94
2022-09-09T05:17:39.452Z,2.95
2022-09-09T05:22:46.646Z,2.95
2022-09-09T05:27:54.332Z,2.95
2022-09-09T05:33:02.013Z,2.95
2022-09-09T05:38:09.521Z,2.96
2022-09-09T05:43:16.120Z,2.97
2022-09-09T05:48:24.813Z,2.98
2022-09-09T05:53:31.676Z,3.0
2022-09-09T05:58:39.273Z,2.98
2022-09-09T06:03:47.159Z,3.0
2022-09-09T06:08:54.617Z,3.0
2022-09-09T06:14:01.834Z,3.0
2022-09-09T06:19:09.087Z,3.01
2022-09-09T06:24:16.661Z,3.01
2022-09-09T06:29:23.832Z,3.01
2022-09-09T06:34:31.192Z,3.01
2022-09-09T06:39:38.478Z,3.02
2022-09-09T06:44:46.305Z,3.0
2022-09-09T06:49:53.501Z,3.02
2022-09-09T06:55:00.848Z,3.01
2022-09-09T07:00:08.970Z,3.01
2022-09-09T07:05:17.050Z,3.01
2022-09-09T07:11:55.816Z,3.01
2022-09-09T07:17:01.862Z,3.02
2022-09-09T07:22:09.210Z,3.01
2022-09-09T07:27:16.163Z,3.01
2022-09-09T07:32:23.542Z,3.01
2022-09-09T07:37:30.881Z,3.01
2022-09-09T07:42:38.765Z,3.0
2022-09-09T07:49:17.090Z,2.99
2022-09-09T07:54:24.094Z,3.0
2022-09-09T07:59:32.052Z,2.99
2022-09-09T08:04:39.525Z,2.99
2022-09-09T08:09:48.088Z,3.0
2022-09-09T08:14:55.290Z,2.98
2022-09-09T08:20:02.814Z,3.0
2022-09-09T08:25:10.615Z,2.98
2022-09-09T08:30:19.606Z,3.0
2022-09-09T08:35:26.913Z,2.98
2022-09-09T08:40:35.409Z,2.99
2022-09-09T08:45:44.138Z,2.99
2022-09-09T08:50:56.502Z,3.0
2022-09-09T08:56:04.974Z,3.0
2022-09-09T09:01:13.062Z,3.0
2022-09-09T09:06:21.453Z,3.0
2022-09-09T09:11:29.613Z,3.0
2022-09-09T09:16:37.857Z,3.01
2022-09-09T09:21:46.511Z,3.0
2022-09-09T09:26:54.418Z,2.99
2022-09-09T09:32:01.492Z,3.0
2022-09-09T09:37:09.860Z,3.0
2022-09-09T09:42:18.332Z,3.0
2022-09-09T09:47:26.698Z,3.0
2022-09-09T09:52:35.211Z,2.99
2022-09-09T09:57:43.127Z,3.0
2022-09-09T10:02:50.679Z,3.0
2022-09-09T10:07:57.688Z,3.0
2022-09-09T10:13:05.535Z,3.0
2022-09-09T10:18:13.490Z,3.0
2022-09-09T10:23:20.907Z,3.0
2022-09-09T10:28:29.014Z,3.0
2022-09-09T10:33:35.716Z,3.0
2022-09-09T10:38:43.422Z,3.0
2022-09-09T10:43:50.097Z,3.01
2022-09-09T10:48:58.896Z,3.0
2022-09-09T10:54:06.299Z,3.0
2022-09-09T10:59:14.411Z,3.0
2022-09-09T11:04:22.252Z,3.01
2022-09-09T11:09:30.456Z,3.0
2022-09-09T11:14:37.447Z,3.0
2022-09-09T11:19:45.343Z,2.99
2022-09-09T11:24:53.845Z,3.0
2022-09-09T11:30:02.454Z,3.0
2022-09-09T11:35:10.249Z,3.0
2022-09-09T11:40:17.888Z,3.0
2022-09-09T11:45:25.369Z,3.0
2022-09-09T11:50:33.745Z,3.0
2022-09-09T11:55:41.649Z,3.0
2022-09-09T12:00:50.003Z,3.0
2022-09-09T12:05:57.336Z,3.01
2022-09-09T12:11:05.123Z,3.0
2022-09-09T12:16:13.055Z,3.01
2022-09-09T12:21:20.252Z,3.0
2022-09-09T12:26:26.780Z,3.01
2022-09-09T12:31:33.659Z,3.0
2022-09-09T12:36:40.536Z,3.0
2022-09-09T12:41:48.183Z,3.0
2022-09-09T12:47:01.254Z,2.99
2022-09-09T12:52:09.292Z,3.01
2022-09-09T12:57:17.057Z,2.99
2022-09-09T13:02:24.321Z,2.99
2022-09-09T13:07:33.079Z,2.99
2022-09-09T13:12:41.561Z,3.01
2022-09-09T13:17:49.725Z,3.0
2022-09-09T13:22:57.855Z,3.0
2022-09-09T13:28:05.511Z,2.99
2022-09-09T13:33:13.224Z,3.0
2022-09-09T13:40:13.130Z,3.0
2022-09-09T13:45:19.758Z,3.0
2022-09-09T13:50:27.388Z,2.99
2022-09-09T13:55:35.625Z,2.99
2022-09-09T14:00:43.943Z,2.99
2022-09-09T14:05:50.976Z,2.99
2022-09-09T14:10:58.578Z,3.0
2022-09-09T14:16:05.744Z,2.99
2022-09-09T14:21:12.554Z,2.98
2022-09-09T14:26:20.837Z,3.0
2022-09-09T14:31:27.570Z,2.98
2022-09-09T14:36:34.724Z,2.98
2022-09-09T14:41:43.040Z,2.98
2022-09-09T14:46:51.366Z,2.98
2022-09-09T14:51:58.993Z,2.98
2022-09-09T14:57:06.861Z,2.98
2022-09-09T15:02:15.135Z,2.97
2022-09-09T15:07:44.953Z,2.98
2022-09-09T15:12:52.699Z,2.98
2022-09-09T15:17:59.360Z,2.98
2022-09-09T15:23:06.487Z,2.98
2022-09-09T15:28:14.923Z,2.97
2022-09-09T15:33:23.283Z,2.98
2022-09-09T15:38:31.252Z,2.97
2022-09-09T15:43:37.823Z,2.99
2022-09-09T15:48:45.701Z,2.98
2022-09-09T15:53:52.860Z,2.98
2022-09-09T15:59:00.114Z,2.98
2022-09-09T16:04:07.949Z,2.98
2022-09-09T16:09:16.006Z,2.97
2022-09-09T16:14:23.686Z,2.98
2022-09-09T16:19:31.400Z,2.98
2022-09-09T16:24:39.353Z,2.98
2022-09-09T16:29:47.655Z,2.97
2022-09-09T16:34:54.949Z,2.98
2022-09-09T16:40:02.144Z,2.97
2022-09-09T16:45:10.005Z,2.97
2022-09-09T16:50:17.434Z,2.98
2022-09-09T16:55:25.532Z,2.98
2022-09-09T17:00:32.905Z,2.98
2022-09-09T17:05:40.086Z,2.97
2022-09-09T17:10:47.611Z,2.98
2022-09-09T17:15:56.320Z,2.98
2022-09-09T17:21:03.576Z,2.97
2022-09-09T17:26:11.916Z,2.97
2022-09-09T17:31:20.405Z,2.98
2022-09-09T17:36:28.563Z,2.98
2022-09-09T17:41:35.604Z,2.97
2022-09-09T17:46:42.767Z,2.97
2022-09-09T17:51:51.112Z,2.97
2022-09-09T17:56:57.888Z,2.97
2022-09-09T18:02:05.656Z,2.98
2022-09-09T18:07:15.930Z,2.98
2022-09-09T18:12:23.978Z,2.98
2022-09-09T18:17:31.763Z,2.97
2022-09-09T18:22:40.463Z,2.97
2022-09-09T18:27:48.078Z,2.98
2022-09-09T18:32:55.776Z,2.98
2022-09-09T18:38:03.099Z,2.97
2022-09-09T18:43:09.653Z,2.97
2022-09-09T18:48:17.580Z,2.97
2022-09-09T18:53:25.289Z,2.96
2022-09-09T18:58:33.493Z,2.97
2022-09-09T19:03:40.375Z,2.98
2022-09-09T19:08:48.242Z,2.98
2022-09-09T19:13:55.442Z,2.96
2022-09-09T19:19:04.014Z,2.97
2022-09-09T19:24:11.717Z,2.97
2022-09-09T19:29:20.456Z,2.96
2022-09-09T19:34:27.948Z,2.96
2022-09-09T19:39:35.892Z,2.96
2022-09-09T19:44:43.311Z,2.98
2022-09-09T19:49:50.301Z,2.97
2022-09-09T19:54:58.252Z,2.98
2022-09-09T20:00:06.085Z,2.97
2022-09-09T20:05:13.838Z,2.97
2022-09-09T20:10:21.707Z,2.97
2022-09-09T20:15:29.496Z,2.97
2022-09-09T20:20:37.193Z,2.97
2022-09-09T20:25:45.208Z,2.97
2022-09-09T20:30:54.262Z,2.97
2022-09-09T20:36:00.886Z,2.97
2022-09-09T20:41:08.873Z,2.97
2022-09-09T20:46:16.620Z,2.97
2022-09-09T20:51:23.182Z,2.97
2022-09-09T20:56:31.242Z,2.97
2022-09-09T21:01:38.157Z,2.97
2022-09-09T21:06:46.402Z,2.97
2022-09-09T21:11:53.816Z,2.96
2022-09-09T21:17:02.734Z,2.98
2022-09-09T21:22:10.646Z,2.96
2022-09-09T21:27:17.375Z,2.98
2022-09-09T21:32:25.210Z,2.97
2022-09-09T21:37:32.884Z,2.96
2022-09-09T21:42:41.353Z,2.97
2022-09-09T21:47:48.695Z,2.96
2022-09-09T21:52:56.669Z,2.96
2022-09-09T21:58:04.338Z,2.98
2022-09-09T22:03:12.071Z,2.98
2022-09-09T22:08:19.438Z,2.96
2022-09-09T22:13:27.248Z,2.97
2022-09-09T22:18:35.235Z,2.97
2022-09-09T22:23:42.406Z,2.97
2022-09-09T22:28:50.119Z,2.97
2022-09-09T22:33:57.088Z,2.97
2022-09-09T22:39:03.983Z,2.97
2022-09-09T22:44:12.170Z,2.96
2022-09-09T22:49:20.933Z,2.96
2022-09-09T22:54:28.056Z,2.96
2022-09-09T22:59:35.834Z,2.96
2022-09-09T23:04:42.458Z,2.96
2022-09-09T23:09:51.733Z,2.96
2022-09-09T23:14:59.568Z,2.97
2022-09-09T23:20:07.405Z,2.96
2022-09-09T23:25:15.027Z,2.96
2022-09-09T23:30:23.718Z,2.96
2022-09-09T23:35:30.773Z,2.97
2022-09-09T23:40:39.288Z,2.96
2022-09-09T23:45:46.456Z,2.97
2022-09-09T23:50:54.622Z,2.96
2022-09-09T23:56:02.889Z,2.97
